Time;durP1;ratioP1;P1;durP2;ratioP2;P2;SDS_P1;SDS_P2;PMS_P1;PMS_P2;Temp;Humidity;BMP_temperature;BMP_pressure;BME280_temperature;BME280_humidity;BME280_pressure;Samples;Min_cycle;Max_cycle;Signal;HPM_P1;HPM_P2
2020/12/15 00:00:34;;;;;;;4.13;1.40;;;;;;;;;;5064108;28;20456;-49
2020/12/15 00:03:00;;;;;;;4.90;1.40;;;;;;;;;;5065398;28;20032;-48
2020/12/15 00:05:26;;;;;;;3.28;1.67;;;;;;;;;;5066001;28;20113;-50
2020/12/15 00:07:52;;;;;;;4.43;1.33;;;;;;;;;;5069311;28;20039;-50
2020/12/15 00:10:18;;;;;;;5.20;1.85;;;;;;;;;;5070188;28;20048;-47
2020/12/15 00:12:44;;;;;;;3.78;1.35;;;;;;;;;;5066100;28;20033;-47
2020/12/15 00:15:10;;;;;;;3.30;1.30;;;;;;;;;;5065790;28;20143;-47
2020/12/15 00:17:37;;;;;;;3.03;1.35;;;;;;;;;;5065829;28;20058;-47
2020/12/15 00:20:07;;;;;;;5.03;1.45;;;;;;;;;;5065314;28;20028;-47
2020/12/15 00:22:33;;;;;;;2.95;1.45;;;;;;;;;;5064841;28;20017;-46
2020/12/15 00:25:00;;;;;;;3.88;1.50;;;;;;;;;;5063827;28;20060;-48
2020/12/15 00:27:26;;;;;;;6.63;1.45;;;;;;;;;;5065697;28;20396;-50
2020/12/15 00:29:52;;;;;;;4.40;1.40;;;;;;;;;;5064936;28;20033;-48
2020/12/15 00:32:18;;;;;;;3.63;1.70;;;;;;;;;;5065063;28;20376;-47
2020/12/15 00:34:45;;;;;;;5.38;1.58;;;;;;;;;;5065939;28;20090;-49
2020/12/15 00:37:11;;;;;;;5.10;1.70;;;;;;;;;;5063956;28;20521;-47
2020/12/15 00:39:37;;;;;;;2.75;1.45;;;;;;;;;;5065570;28;20025;-47
2020/12/15 00:42:03;;;;;;;4.88;1.42;;;;;;;;;;5064630;28;20529;-47
2020/12/15 00:44:29;;;;;;;2.92;1.52;;;;;;;;;;5063325;28;20388;-48
2020/12/15 00:46:55;;;;;;;3.90;1.40;;;;;;;;;;5065182;28;20027;-49
2020/12/15 00:49:22;;;;;;;2.80;1.42;;;;;;;;;;5065236;28;20035;-46
2020/12/15 00:51:48;;;;;;;9.10;1.50;;;;;;;;;;5064791;28;20472;-49
2020/12/15 00:54:16;;;;;;;3.70;1.30;;;;;;;;;;5065481;28;20439;-46
2020/12/15 00:56:42;;;;;;;3.70;1.30;;;;;;;;;;5065063;28;20028;-47
2020/12/15 00:59:09;;;;;;;2.85;0.90;;;;;;;;;;5064687;28;20031;-48
2020/12/15 01:01:35;;;;;;;3.17;1.40;;;;;;;;;;5064710;28;20876;-48
2020/12/15 01:04:01;;;;;;;3.58;1.55;;;;;;;;;;5064572;28;20124;-50
2020/12/15 01:06:27;;;;;;;1.85;1.10;;;;;;;;;;5065095;28;20016;-48
2020/12/15 01:08:53;;;;;;;4.03;1.25;;;;;;;;;;5064523;28;20600;-48
2020/12/15 01:11:20;;;;;;;3.88;1.33;;;;;;;;;;5063575;28;20036;-48
2020/12/15 01:13:46;;;;;;;3.33;1.50;;;;;;;;;;5065368;28;20114;-47
2020/12/15 01:16:13;;;;;;;3.47;1.45;;;;;;;;;;5064601;28;20044;-47
2020/12/15 01:18:39;;;;;;;5.30;1.70;;;;;;;;;;5064683;28;20083;-47
2020/12/15 01:21:06;;;;;;;3.45;1.40;;;;;;;;;;5063966;28;20102;-46
2020/12/15 01:23:32;;;;;;;5.05;1.40;;;;;;;;;;5064806;28;20047;-47
2020/12/15 01:25:58;;;;;;;3.33;1.42;;;;;;;;;;5064558;28;20024;-48
2020/12/15 01:28:25;;;;;;;8.73;1.58;;;;;;;;;;5064852;28;20023;-50
2020/12/15 01:30:51;;;;;;;3.80;1.40;;;;;;;;;;5064501;28;20103;-49
2020/12/15 01:33:17;;;;;;;3.25;1.40;;;;;;;;;;5064654;28;20104;-46
2020/12/15 01:35:45;;;;;;;3.95;1.67;;;;;;;;;;5068150;28;20032;-47
2020/12/15 01:38:11;;;;;;;2.83;1.40;;;;;;;;;;5084591;28;20031;-48
2020/12/15 01:40:37;;;;;;;3.95;1.45;;;;;;;;;;5084798;28;20081;-46
2020/12/15 01:43:02;;;;;;;2.58;1.42;;;;;;;;;;5084440;28;20451;-46
2020/12/15 01:45:28;;;;;;;2.58;1.40;;;;;;;;;;5081553;28;20064;-47
2020/12/15 01:47:54;;;;;;;3.17;1.25;;;;;;;;;;5064265;28;20024;-48
2020/12/15 01:50:21;;;;;;;5.07;1.42;;;;;;;;;;5064126;28;20033;-49
2020/12/15 01:52:47;;;;;;;5.75;1.00;;;;;;;;;;5063637;28;20123;-47
2020/12/15 01:55:16;;;;;;;3.40;1.17;;;;;;;;;;5064500;28;20486;-46
2020/12/15 01:57:45;;;;;;;6.38;1.42;;;;;;;;;;5079928;28;20402;-49
2020/12/15 02:00:11;;;;;;;1.75;1.08;;;;;;;;;;5063082;28;20028;-47
2020/12/15 02:02:39;;;;;;;2.75;0.82;;;;;;;;;;5063946;28;20074;-49
2020/12/15 02:05:05;;;;;;;3.00;1.00;;;;;;;;;;5064086;28;20104;-47
2020/12/15 02:07:31;;;;;;;3.38;1.13;;;;;;;;;;5081876;28;20032;-47
2020/12/15 02:09:57;;;;;;;2.47;1.05;;;;;;;;;;5083090;28;20425;-48
2020/12/15 02:12:23;;;;;;;2.40;1.25;;;;;;;;;;5084091;28;20555;-48
2020/12/15 02:14:50;;;;;;;1.90;0.75;;;;;;;;;;5085285;28;20028;-47
2020/12/15 02:17:16;;;;;;;1.98;1.00;;;;;;;;;;5068243;28;20047;-49
2020/12/15 02:19:42;;;;;;;2.88;0.93;;;;;;;;;;5064021;28;20111;-46
2020/12/15 02:22:09;;;;;;;1.40;0.90;;;;;;;;;;5063921;28;20550;-47
2020/12/15 02:24:35;;;;;;;1.85;0.93;;;;;;;;;;5063937;28;20111;-48
2020/12/15 02:27:01;;;;;;;2.72;1.08;;;;;;;;;;5064192;28;20108;-48
2020/12/15 02:29:27;;;;;;;2.17;1.13;;;;;;;;;;5063414;28;20031;-50
2020/12/15 02:31:53;;;;;;;0.65;0.60;;;;;;;;;;5063233;28;20048;-46
2020/12/15 02:34:20;;;;;;;1.58;0.80;;;;;;;;;;5064826;28;20441;-50
2020/12/15 02:36:45;;;;;;;1.70;0.70;;;;;;;;;;5064427;28;20040;-50
2020/12/15 02:39:16;;;;;;;2.30;1.10;;;;;;;;;;5063561;28;20033;-47
2020/12/15 02:41:42;;;;;;;2.20;1.10;;;;;;;;;;5063632;28;20114;-49
2020/12/15 02:44:09;;;;;;;3.60;1.45;;;;;;;;;;5063769;28;20103;-47
2020/12/15 02:46:35;;;;;;;3.53;1.17;;;;;;;;;;5065775;28;20024;-47
2020/12/15 02:49:02;;;;;;;1.88;0.93;;;;;;;;;;5067012;28;20052;-47
2020/12/15 02:51:28;;;;;;;1.30;0.85;;;;;;;;;;5067041;28;20554;-49
2020/12/15 02:53:55;;;;;;;1.90;0.93;;;;;;;;;;5065851;28;20482;-50
2020/12/15 02:56:21;;;;;;;1.70;0.90;;;;;;;;;;5068069;28;20032;-49
2020/12/15 02:58:47;;;;;;;1.27;0.60;;;;;;;;;;5068055;28;20070;-49
2020/12/15 03:01:14;;;;;;;1.52;0.77;;;;;;;;;;5067430;28;20108;-49
2020/12/15 03:03:40;;;;;;;0.77;0.77;;;;;;;;;;5067244;28;20078;-50
2020/12/15 03:06:06;;;;;;;1.75;0.77;;;;;;;;;;5082937;28;20046;-49
2020/12/15 03:08:32;;;;;;;1.65;0.90;;;;;;;;;;5087032;28;20036;-48
2020/12/15 03:10:58;;;;;;;2.75;1.02;;;;;;;;;;5086130;28;20030;-48
2020/12/15 03:13:24;;;;;;;1.95;1.02;;;;;;;;;;5087738;28;20059;-51
2020/12/15 03:15:51;;;;;;;3.45;0.90;;;;;;;;;;5072979;28;20089;-51
2020/12/15 03:18:18;;;;;;;1.45;0.70;;;;;;;;;;5067666;28;20040;-49
2020/12/15 03:20:49;;;;;;;1.48;0.77;;;;;;;;;;5067456;28;20027;-49
2020/12/15 03:23:15;;;;;;;1.10;0.63;;;;;;;;;;5066533;28;20028;-46
2020/12/15 03:25:41;;;;;;;1.80;0.80;;;;;;;;;;5066711;28;20253;-49
2020/12/15 03:28:07;;;;;;;1.73;0.90;;;;;;;;;;5066285;28;20107;-49
2020/12/15 03:30:34;;;;;;;1.50;0.90;;;;;;;;;;5066904;28;20028;-48
2020/12/15 03:33:00;;;;;;;1.60;0.80;;;;;;;;;;5066342;28;20036;-47
2020/12/15 03:35:27;;;;;;;1.13;0.73;;;;;;;;;;5067068;28;20055;-49
2020/12/15 03:37:55;;;;;;;0.95;0.63;;;;;;;;;;5066429;28;20030;-48
2020/12/15 03:40:22;;;;;;;2.03;0.90;;;;;;;;;;5066641;28;20028;-50
2020/12/15 03:42:48;;;;;;;2.92;0.68;;;;;;;;;;5066932;28;20036;-46
2020/12/15 03:45:15;;;;;;;3.42;0.80;;;;;;;;;;5066056;28;20028;-48
2020/12/15 03:47:41;;;;;;;2.00;0.70;;;;;;;;;;5066461;28;20586;-48
2020/12/15 03:50:09;;;;;;;0.82;0.50;;;;;;;;;;5066423;28;20108;-48
2020/12/15 03:52:35;;;;;;;2.78;1.13;;;;;;;;;;5064615;28;20050;-50
2020/12/15 03:55:01;;;;;;;1.33;0.70;;;;;;;;;;5066262;28;20506;-50
2020/12/15 03:57:27;;;;;;;0.43;0.40;;;;;;;;;;5074078;28;20113;-48
2020/12/15 03:59:53;;;;;;;1.65;0.70;;;;;;;;;;5085682;28;20028;-46
2020/12/15 04:02:19;;;;;;;0.68;0.55;;;;;;;;;;5073579;28;20040;-47
2020/12/15 04:04:45;;;;;;;0.45;0.30;;;;;;;;;;5066258;28;20027;-46
2020/12/15 04:07:11;;;;;;;0.57;0.40;;;;;;;;;;5065359;28;20491;-46
2020/12/15 04:09:37;;;;;;;0.80;0.52;;;;;;;;;;5065618;28;20095;-48
2020/12/15 04:12:03;;;;;;;1.23;0.60;;;;;;;;;;5065330;28;20036;-49
2020/12/15 04:14:30;;;;;;;0.52;0.38;;;;;;;;;;5066034;28;20039;-48
2020/12/15 04:16:56;;;;;;;2.88;0.90;;;;;;;;;;5065598;28;20415;-47
2020/12/15 04:19:22;;;;;;;1.00;0.60;;;;;;;;;;5066141;28;20104;-47
2020/12/15 04:21:48;;;;;;;1.08;0.55;;;;;;;;;;5066299;28;20028;-48
2020/12/15 04:24:14;;;;;;;2.83;0.85;;;;;;;;;;5065197;28;20039;-48
2020/12/15 04:26:40;;;;;;;2.15;0.70;;;;;;;;;;5065670;28;20187;-48
2020/12/15 04:29:07;;;;;;;2.30;0.60;;;;;;;;;;5063922;28;20028;-50
2020/12/15 04:31:33;;;;;;;1.67;0.77;;;;;;;;;;5065434;28;20028;-49
2020/12/15 04:33:59;;;;;;;0.77;0.50;;;;;;;;;;5065392;28;20108;-47
2020/12/15 04:36:25;;;;;;;0.95;0.52;;;;;;;;;;5065567;28;20095;-47
2020/12/15 04:38:51;;;;;;;1.20;0.65;;;;;;;;;;5069476;28;20043;-47
2020/12/15 04:41:17;;;;;;;2.58;0.73;;;;;;;;;;5085700;28;20471;-47
2020/12/15 04:43:44;;;;;;;2.78;0.88;;;;;;;;;;5085511;28;20024;-47
2020/12/15 04:46:12;;;;;;;0.68;0.40;;;;;;;;;;5085327;28;20028;-50
2020/12/15 04:48:44;;;;;;;1.23;0.80;;;;;;;;;;5076063;28;20052;-47
2020/12/15 04:51:13;;;;;;;1.85;0.65;;;;;;;;;;5064326;28;20115;-47
2020/12/15 04:53:40;;;;;;;1.15;0.55;;;;;;;;;;5065287;28;20034;-46
2020/12/15 04:56:22;;;;;;;0.77;0.60;;;;;;;;;;5064963;28;20036;-50
2020/12/15 04:58:48;;;;;;;0.80;0.63;;;;;;;;;;5065482;28;20036;-45
2020/12/15 05:01:14;;;;;;;0.93;0.50;;;;;;;;;;5064622;28;20021;-48
2020/12/15 05:03:43;;;;;;;0.98;0.40;;;;;;;;;;5065016;28;20032;-48
2020/12/15 05:06:16;;;;;;;1.25;0.80;;;;;;;;;;5066023;28;20126;-48
2020/12/15 05:08:47;;;;;;;0.88;0.55;;;;;;;;;;5065837;28;20280;-51
2020/12/15 05:11:13;;;;;;;1.48;0.70;;;;;;;;;;5065735;28;20489;-47
2020/12/15 05:13:39;;;;;;;0.70;0.40;;;;;;;;;;5066258;28;20134;-49
2020/12/15 05:16:05;;;;;;;1.15;0.40;;;;;;;;;;5066216;28;20050;-48
2020/12/15 05:18:31;;;;;;;0.52;0.40;;;;;;;;;;5066340;28;20104;-50
2020/12/15 05:20:57;;;;;;;0.32;0.32;;;;;;;;;;5065858;28;20023;-50
2020/12/15 05:23:23;;;;;;;1.58;0.60;;;;;;;;;;5066111;28;20017;-49
2020/12/15 05:25:49;;;;;;;0.50;0.40;;;;;;;;;;5066587;28;20084;-49
2020/12/15 05:28:15;;;;;;;0.90;0.65;;;;;;;;;;5066039;28;20023;-48
2020/12/15 05:30:42;;;;;;;2.25;0.50;;;;;;;;;;5065696;28;20036;-48
2020/12/15 05:33:14;;;;;;;1.35;0.60;;;;;;;;;;5065823;28;20020;-47
2020/12/15 05:35:40;;;;;;;1.35;0.80;;;;;;;;;;5073055;28;20845;-47
2020/12/15 05:38:07;;;;;;;1.50;0.75;;;;;;;;;;5083322;28;20045;-50
2020/12/15 05:40:33;;;;;;;2.20;1.00;;;;;;;;;;5085297;28;20028;-47
2020/12/15 05:43:00;;;;;;;1.77;0.82;;;;;;;;;;5075033;28;20107;-49
2020/12/15 05:45:27;;;;;;;2.15;0.95;;;;;;;;;;5065987;28;20025;-51
2020/12/15 05:48:09;;;;;;;1.70;0.70;;;;;;;;;;5066073;28;20438;-50
2020/12/15 05:50:38;;;;;;;1.83;1.10;;;;;;;;;;5075795;28;20058;-47
2020/12/15 05:53:05;;;;;;;1.05;0.70;;;;;;;;;;5078658;28;20548;-46
2020/12/15 05:55:31;;;;;;;1.13;0.60;;;;;;;;;;5075554;28;20042;-50
2020/12/15 05:57:58;;;;;;;3.88;1.00;;;;;;;;;;5069925;28;20039;-47
2020/12/15 06:00:29;;;;;;;4.07;1.25;;;;;;;;;;5064092;28;20032;-46
2020/12/15 06:03:02;;;;;;;2.25;1.10;;;;;;;;;;5075488;28;20036;-47
2020/12/15 06:05:29;;;;;;;1.88;1.13;;;;;;;;;;5073165;28;20475;-47
2020/12/15 06:07:56;;;;;;;1.50;0.70;;;;;;;;;;5073072;28;20467;-49
2020/12/15 06:10:23;;;;;;;0.80;0.75;;;;;;;;;;5085105;28;20035;-46
2020/12/15 06:12:49;;;;;;;2.40;0.70;;;;;;;;;;5084852;28;20024;-47
2020/12/15 06:15:17;;;;;;;2.42;1.02;;;;;;;;;;5082828;28;20028;-47
2020/12/15 06:17:50;;;;;;;2.63;0.55;;;;;;;;;;5084495;28;20028;-46
2020/12/15 06:20:21;;;;;;;0.95;0.40;;;;;;;;;;5083976;28;20158;-49
2020/12/15 06:22:54;;;;;;;2.35;0.80;;;;;;;;;;5085263;28;20032;-50
2020/12/15 06:25:33;;;;;;;2.20;0.60;;;;;;;;;;5078445;28;20565;-49
2020/12/15 06:28:07;;;;;;;1.30;0.52;;;;;;;;;;5069311;28;20058;-51
2020/12/15 06:30:34;;;;;;;1.23;0.82;;;;;;;;;;5068448;28;20107;-52
2020/12/15 06:33:01;;;;;;;0.93;0.52;;;;;;;;;;5073030;28;20028;-49
2020/12/15 06:35:27;;;;;;;1.02;0.68;;;;;;;;;;5088264;28;20433;-47
2020/12/15 06:37:53;;;;;;;2.10;0.73;;;;;;;;;;5087952;28;20038;-49
2020/12/15 06:40:19;;;;;;;1.15;0.70;;;;;;;;;;5088734;28;20039;-49
2020/12/15 06:42:53;;;;;;;1.27;0.70;;;;;;;;;;5083797;28;20075;-47
2020/12/15 06:45:23;;;;;;;1.02;0.70;;;;;;;;;;5067807;28;20410;-47
2020/12/15 06:47:59;;;;;;;2.28;0.68;;;;;;;;;;5068103;28;20020;-49
2020/12/15 06:50:25;;;;;;;3.28;1.13;;;;;;;;;;5067886;28;20021;-51
2020/12/15 06:52:51;;;;;;;4.60;0.88;;;;;;;;;;5067415;28;20021;-51
2020/12/15 06:55:28;;;;;;;2.33;0.80;;;;;;;;;;5067725;28;20037;-51
2020/12/15 06:57:58;;;;;;;2.53;1.02;;;;;;;;;;5067000;28;20099;-48
2020/12/15 07:00:32;;;;;;;2.67;1.23;;;;;;;;;;5070029;28;20028;-46
2020/12/15 07:02:58;;;;;;;;;;;;;;;;;;5076306;28;20554;-47
2020/12/15 07:05:25;;;;;;;1.00;0.60;;;;;;;;;;5087702;28;19998;-48
2020/12/15 07:07:55;;;;;;;2.33;1.15;;;;;;;;;;5076427;28;20039;-50
2020/12/15 07:10:23;;;;;;;1.33;0.73;;;;;;;;;;5068876;28;20033;-50
2020/12/15 07:12:49;;;;;;;3.47;1.15;;;;;;;;;;5069233;28;20078;-50
2020/12/15 07:15:16;;;;;;;0.82;0.65;;;;;;;;;;5068375;28;20054;-51
2020/12/15 07:17:46;;;;;;;1.98;0.65;;;;;;;;;;5068463;28;20128;-50
2020/12/15 07:20:12;;;;;;;1.23;0.60;;;;;;;;;;5068354;28;20553;-47
2020/12/15 07:22:38;;;;;;;0.80;0.55;;;;;;;;;;5068487;28;20024;-51
2020/12/15 07:25:05;;;;;;;1.08;0.80;;;;;;;;;;5067939;28;20028;-47
2020/12/15 07:27:34;;;;;;;2.67;0.95;;;;;;;;;;5069920;28;20024;-47
2020/12/15 07:30:00;;;;;;;2.25;1.00;;;;;;;;;;5068251;28;20028;-47
2020/12/15 07:32:27;;;;;;;2.95;1.10;;;;;;;;;;5081436;28;20034;-47
2020/12/15 07:35:20;;;;;;;2.20;0.77;;;;;;;;;;5073564;28;20036;-48
2020/12/15 07:37:48;;;;;;;2.58;0.82;;;;;;;;;;5067184;28;20044;-47
2020/12/15 07:40:15;;;;;;;1.58;0.82;;;;;;;;;;5074426;28;20446;-50
2020/12/15 07:42:52;;;;;;;1.88;0.73;;;;;;;;;;5067359;28;20487;-49
2020/12/15 07:45:18;;;;;;;1.98;0.82;;;;;;;;;;5068559;28;20510;-49
2020/12/15 07:47:44;;;;;;;1.90;0.82;;;;;;;;;;5067524;28;20372;-48
2020/12/15 07:50:11;;;;;;;1.77;0.70;;;;;;;;;;5084744;28;20449;-51
2020/12/15 07:52:38;;;;;;;1.75;0.88;;;;;;;;;;5069174;28;20086;-47
2020/12/15 07:55:14;;;;;;;2.17;0.70;;;;;;;;;;5067239;28;20028;-49
2020/12/15 07:57:41;;;;;;;2.30;0.98;;;;;;;;;;5070094;28;20120;-48
2020/12/15 08:00:11;;;;;;;3.88;1.00;;;;;;;;;;5083114;28;20024;-49
2020/12/15 08:02:38;;;;;;;2.67;1.08;;;;;;;;;;5084782;28;20103;-46
2020/12/15 08:05:08;;;;;;;2.03;0.80;;;;;;;;;;5067360;28;20028;-47
2020/12/15 08:07:42;;;;;;;2.25;0.98;;;;;;;;;;5069684;28;20036;-47
2020/12/15 08:10:08;;;;;;;3.22;0.82;;;;;;;;;;5066895;28;20021;-46
2020/12/15 08:12:34;;;;;;;1.52;0.73;;;;;;;;;;5075255;28;20386;-46
2020/12/15 08:15:01;;;;;;;2.97;0.80;;;;;;;;;;5087603;28;20042;-47
2020/12/15 08:17:30;;;;;;;2.03;0.77;;;;;;;;;;5069007;28;20113;-47
2020/12/15 08:20:02;;;;;;;2.58;0.68;;;;;;;;;;5080293;28;20456;-47
2020/12/15 08:22:28;;;;;;;1.33;0.55;;;;;;;;;;5085837;28;20027;-48
2020/12/15 08:24:55;;;;;;;2.45;0.77;;;;;;;;;;5085003;28;20036;-46
2020/12/15 08:27:23;;;;;;;1.38;0.63;;;;;;;;;;5081236;28;20093;-48
2020/12/15 08:29:49;;;;;;;1.83;0.77;;;;;;;;;;5071004;28;20037;-47
2020/12/15 08:32:25;;;;;;;2.47;0.75;;;;;;;;;;5071656;28;20509;-46
2020/12/15 08:35:01;;;;;;;2.92;1.00;;;;;;;;;;5067643;28;20111;-47
2020/12/15 08:37:28;;;;;;;0.80;0.70;;;;;;;;;;5066578;28;20032;-49
2020/12/15 08:39:54;;;;;;;2.45;0.50;;;;;;;;;;5064431;28;20025;-47
2020/12/15 08:42:21;;;;;;;1.80;0.70;;;;;;;;;;5067555;28;20040;-47
2020/12/15 08:44:47;;;;;;;3.45;0.90;;;;;;;;;;5066645;28;20661;-47
2020/12/15 08:47:16;;;;;;;3.22;0.73;;;;;;;;;;5064905;28;20115;-49
2020/12/15 08:49:43;;;;;;;1.83;0.60;;;;;;;;;;5065256;28;20058;-46
2020/12/15 08:52:10;;;;;;;1.73;0.73;;;;;;;;;;5064427;28;20388;-47
2020/12/15 08:54:42;;;;;;;2.45;0.82;;;;;;;;;;5065017;28;20025;-50
2020/12/15 08:57:17;;;;;;;2.72;1.17;;;;;;;;;;5064679;28;20028;-50
2020/12/15 08:59:44;;;;;;;3.58;0.77;;;;;;;;;;5064763;28;20490;-51
2020/12/15 09:02:11;;;;;;;2.63;0.80;;;;;;;;;;5064603;28;20631;-46
2020/12/15 09:04:37;;;;;;;4.05;1.20;;;;;;;;;;5064911;28;20028;-45
2020/12/15 09:07:13;;;;;;;2.85;1.20;;;;;;;;;;5064355;28;20024;-50
2020/12/15 09:09:40;;;;;;;2.40;0.90;;;;;;;;;;5064050;28;20044;-47
2020/12/15 09:12:06;;;;;;;2.92;0.65;;;;;;;;;;5064601;28;20038;-48
2020/12/15 09:14:32;;;;;;;1.80;0.70;;;;;;;;;;5064757;28;20147;-48
2020/12/15 09:16:58;;;;;;;1.75;0.70;;;;;;;;;;5064662;28;20127;-48
2020/12/15 09:19:26;;;;;;;1.05;0.57;;;;;;;;;;5064788;28;20028;-47
2020/12/15 09:22:09;;;;;;;1.60;0.80;;;;;;;;;;5065012;28;20312;-51
2020/12/15 09:24:41;;;;;;;2.15;0.93;;;;;;;;;;5064654;28;20060;-46
2020/12/15 09:27:17;;;;;;;1.73;0.77;;;;;;;;;;5064474;28;20082;-50
2020/12/15 09:29:43;;;;;;;1.65;1.10;;;;;;;;;;5064389;28;20082;-50
2020/12/15 09:32:09;;;;;;;1.42;0.90;;;;;;;;;;5064474;28;20066;-50
2020/12/15 09:34:35;;;;;;;2.55;0.60;;;;;;;;;;5064612;28;20033;-48
2020/12/15 09:37:01;;;;;;;1.55;0.68;;;;;;;;;;5063931;28;20429;-47
2020/12/15 09:39:29;;;;;;;2.03;0.93;;;;;;;;;;5064535;28;20060;-51
2020/12/15 09:41:58;;;;;;;1.50;0.80;;;;;;;;;;5064235;28;20479;-46
2020/12/15 09:44:25;;;;;;;1.50;0.70;;;;;;;;;;5064381;28;20028;-48
2020/12/15 09:46:51;;;;;;;1.30;0.88;;;;;;;;;;5065112;28;20395;-48
2020/12/15 09:49:18;;;;;;;2.17;0.82;;;;;;;;;;5064220;28;20025;-47
2020/12/15 09:51:44;;;;;;;2.90;0.82;;;;;;;;;;5064127;28;20042;-47
2020/12/15 09:54:11;;;;;;;2.67;1.00;;;;;;;;;;5069216;28;20027;-48
2020/12/15 09:56:42;;;;;;;1.45;0.70;;;;;;;;;;5086024;28;20055;-47
2020/12/15 09:59:09;;;;;;;1.75;0.90;;;;;;;;;;5088166;28;20296;-47
2020/12/15 10:01:35;;;;;;;2.70;1.05;;;;;;;;;;5088200;28;20439;-51
2020/12/15 10:04:02;;;;;;;1.33;0.70;;;;;;;;;;5087160;28;20413;-50
2020/12/15 10:06:28;;;;;;;2.25;1.10;;;;;;;;;;5087102;28;20055;-48
2020/12/15 10:08:55;;;;;;;2.63;1.13;;;;;;;;;;5088012;28;20035;-48
2020/12/15 10:11:22;;;;;;;2.70;0.90;;;;;;;;;;5088033;28;20127;-46
2020/12/15 10:13:48;;;;;;;1.40;0.90;;;;;;;;;;5087923;28;20440;-47
2020/12/15 10:16:14;;;;;;;1.80;0.82;;;;;;;;;;5087910;28;20073;-47
2020/12/15 10:18:40;;;;;;;1.80;0.80;;;;;;;;;;5087957;28;20063;-46
2020/12/15 10:21:06;;;;;;;2.33;1.02;;;;;;;;;;5087962;28;20036;-46
2020/12/15 10:23:34;;;;;;;1.40;0.70;;;;;;;;;;5088548;28;20454;-47
2020/12/15 10:26:00;;;;;;;2.00;0.98;;;;;;;;;;5086882;28;20024;-48
2020/12/15 10:28:27;;;;;;;1.85;0.75;;;;;;;;;;5087536;28;20032;-46
2020/12/15 10:30:53;;;;;;;3.25;1.35;;;;;;;;;;5087609;28;20028;-47
2020/12/15 10:33:19;;;;;;;2.35;1.05;;;;;;;;;;5087611;28;20219;-46
2020/12/15 10:35:46;;;;;;;2.25;0.95;;;;;;;;;;5087906;28;20046;-46
2020/12/15 10:38:12;;;;;;;1.67;0.77;;;;;;;;;;5087681;28;20032;-46
2020/12/15 10:40:39;;;;;;;1.20;0.70;;;;;;;;;;5087545;28;20030;-46
2020/12/15 10:43:05;;;;;;;1.85;0.57;;;;;;;;;;5087335;28;20301;-46
2020/12/15 10:45:31;;;;;;;2.53;0.98;;;;;;;;;;5087954;28;20028;-46
2020/12/15 10:47:57;;;;;;;1.88;0.65;;;;;;;;;;5087274;28;20028;-48
2020/12/15 10:50:24;;;;;;;1.42;0.85;;;;;;;;;;5087539;28;20032;-47
2020/12/15 10:52:50;;;;;;;3.20;0.65;;;;;;;;;;5086885;28;20115;-47
2020/12/15 10:55:16;;;;;;;1.85;0.88;;;;;;;;;;5087000;28;20016;-47
2020/12/15 10:57:42;;;;;;;1.05;0.68;;;;;;;;;;5087021;28;20360;-47
2020/12/15 11:00:08;;;;;;;0.70;0.50;;;;;;;;;;5087071;28;20053;-48
2020/12/15 11:02:34;;;;;;;0.47;0.47;;;;;;;;;;5087478;28;20450;-47
2020/12/15 11:05:00;;;;;;;1.77;0.85;;;;;;;;;;5087238;28;20034;-46
2020/12/15 11:07:26;;;;;;;1.17;0.52;;;;;;;;;;5085985;28;20025;-47
2020/12/15 11:09:52;;;;;;;1.02;0.50;;;;;;;;;;5087034;28;20104;-46
2020/12/15 11:12:18;;;;;;;1.50;0.70;;;;;;;;;;5086914;28;20024;-47
2020/12/15 11:14:44;;;;;;;1.13;0.75;;;;;;;;;;5087195;28;20031;-46
2020/12/15 11:17:11;;;;;;;1.05;0.70;;;;;;;;;;5086896;28;20032;-47
2020/12/15 11:19:37;;;;;;;0.57;0.50;;;;;;;;;;5087052;28;20497;-47
2020/12/15 11:22:04;;;;;;;1.27;0.70;;;;;;;;;;5087612;28;20028;-47
2020/12/15 11:24:30;;;;;;;1.65;0.63;;;;;;;;;;5087439;28;20032;-48
2020/12/15 11:26:56;;;;;;;1.42;0.50;;;;;;;;;;5086611;28;20016;-46
2020/12/15 11:29:22;;;;;;;1.40;0.55;;;;;;;;;;5086838;28;20130;-47
2020/12/15 11:31:49;;;;;;;0.85;0.40;;;;;;;;;;5087515;28;20103;-48
2020/12/15 11:34:15;;;;;;;1.60;0.70;;;;;;;;;;5087051;28;20026;-47
2020/12/15 11:36:41;;;;;;;0.40;0.40;;;;;;;;;;5086769;28;20017;-46
2020/12/15 11:39:07;;;;;;;0.88;0.60;;;;;;;;;;5086746;28;20086;-47
2020/12/15 11:41:35;;;;;;;0.65;0.50;;;;;;;;;;5087179;28;20402;-46
2020/12/15 11:44:01;;;;;;;0.75;0.50;;;;;;;;;;5087236;28;20489;-46
2020/12/15 11:46:27;;;;;;;0.73;0.43;;;;;;;;;;5084317;28;20043;-47
2020/12/15 11:48:53;;;;;;;1.30;0.60;;;;;;;;;;5066697;28;20068;-47
2020/12/15 11:51:20;;;;;;;1.27;0.60;;;;;;;;;;5066355;28;20082;-47
2020/12/15 11:53:47;;;;;;;1.08;0.52;;;;;;;;;;5086081;28;20020;-46
2020/12/15 11:56:16;;;;;;;0.75;0.47;;;;;;;;;;5086971;28;20024;-47
2020/12/15 11:58:43;;;;;;;1.45;0.70;;;;;;;;;;5086605;28;20103;-46
2020/12/15 12:01:09;;;;;;;0.98;0.60;;;;;;;;;;5086388;28;20028;-47
2020/12/15 12:03:35;;;;;;;0.88;0.68;;;;;;;;;;5085237;28;20022;-47
2020/12/15 12:06:01;;;;;;;1.27;0.60;;;;;;;;;;5086153;28;20066;-46
2020/12/15 12:08:28;;;;;;;1.40;0.90;;;;;;;;;;5086455;28;20080;-45
2020/12/15 12:10:54;;;;;;;1.20;0.57;;;;;;;;;;5085883;28;20024;-46
2020/12/15 12:13:20;;;;;;;1.17;0.80;;;;;;;;;;5086259;28;20153;-46
2020/12/15 12:15:46;;;;;;;0.95;0.65;;;;;;;;;;5086673;28;20398;-47
2020/12/15 12:18:12;;;;;;;1.10;0.70;;;;;;;;;;5086250;28;20036;-48
2020/12/15 12:20:39;;;;;;;0.70;0.57;;;;;;;;;;5085963;28;20028;-45
2020/12/15 12:23:05;;;;;;;1.38;0.70;;;;;;;;;;5085048;28;20080;-47
2020/12/15 12:25:32;;;;;;;0.55;0.40;;;;;;;;;;5085577;28;20452;-46
2020/12/15 12:27:58;;;;;;;1.35;0.50;;;;;;;;;;5085577;28;20024;-46
2020/12/15 12:30:24;;;;;;;1.38;0.57;;;;;;;;;;5086061;28;20016;-47
2020/12/15 12:32:50;;;;;;;1.02;0.65;;;;;;;;;;5085749;28;20043;-46
2020/12/15 12:35:16;;;;;;;1.23;0.60;;;;;;;;;;5086265;28;20027;-46
2020/12/15 12:37:42;;;;;;;0.40;0.40;;;;;;;;;;5086479;28;20036;-48
2020/12/15 12:40:09;;;;;;;0.40;0.40;;;;;;;;;;5085566;28;20178;-50
2020/12/15 12:42:38;;;;;;;1.05;0.63;;;;;;;;;;5085490;28;20121;-50
2020/12/15 12:45:04;;;;;;;1.17;0.70;;;;;;;;;;5085367;28;20103;-50
2020/12/15 12:47:30;;;;;;;0.85;0.57;;;;;;;;;;5083497;28;20115;-50
2020/12/15 12:49:56;;;;;;;2.70;0.77;;;;;;;;;;5075638;28;20509;-51
2020/12/15 12:52:22;;;;;;;2.08;0.90;;;;;;;;;;5086222;28;20030;-50
2020/12/15 12:54:48;;;;;;;1.35;0.63;;;;;;;;;;5066753;28;20029;-50
2020/12/15 12:57:14;;;;;;;1.13;0.88;;;;;;;;;;5066462;28;20024;-48
2020/12/15 12:59:40;;;;;;;2.60;1.30;;;;;;;;;;5076339;28;20025;-46
2020/12/15 13:02:06;;;;;;;1.55;1.15;;;;;;;;;;5066115;28;20028;-49
2020/12/15 13:04:33;;;;;;;1.60;1.00;;;;;;;;;;5069647;28;20028;-46
2020/12/15 13:06:59;;;;;;;1.17;0.90;;;;;;;;;;5079503;28;20016;-47
2020/12/15 13:09:29;;;;;;;1.20;0.73;;;;;;;;;;5086967;28;20645;-47
2020/12/15 13:11:55;;;;;;;1.67;0.90;;;;;;;;;;5065693;28;20056;-47
2020/12/15 13:14:21;;;;;;;1.92;0.70;;;;;;;;;;5066436;28;20029;-46
2020/12/15 13:16:47;;;;;;;1.88;1.05;;;;;;;;;;5067132;28;20036;-47
2020/12/15 13:19:13;;;;;;;2.95;1.88;;;;;;;;;;5070345;28;20020;-47
2020/12/15 13:21:40;;;;;;;4.38;2.60;;;;;;;;;;5073291;28;20043;-47
2020/12/15 13:24:07;;;;;;;5.65;2.88;;;;;;;;;;5086196;28;20024;-47
2020/12/15 13:26:33;;;;;;;5.05;2.80;;;;;;;;;;5073685;28;20078;-50
2020/12/15 13:29:00;;;;;;;4.63;2.85;;;;;;;;;;5077670;28;20024;-47
2020/12/15 13:31:27;;;;;;;4.65;2.65;;;;;;;;;;5083399;28;20448;-46
2020/12/15 13:33:54;;;;;;;3.60;2.42;;;;;;;;;;5083822;28;20027;-47
2020/12/15 13:36:20;;;;;;;3.95;2.50;;;;;;;;;;5084226;28;20036;-46
2020/12/15 13:38:46;;;;;;;3.15;2.25;;;;;;;;;;5085402;28;20028;-46
2020/12/15 13:41:12;;;;;;;3.55;2.35;;;;;;;;;;5084322;28;20034;-46
2020/12/15 13:43:38;;;;;;;4.43;2.97;;;;;;;;;;5084556;28;20277;-48
2020/12/15 13:46:07;;;;;;;4.57;2.42;;;;;;;;;;5082540;28;20024;-47
2020/12/15 13:48:33;;;;;;;3.78;2.55;;;;;;;;;;5084974;28;20048;-47
2020/12/15 13:50:59;;;;;;;3.90;2.22;;;;;;;;;;5077112;28;20025;-46
2020/12/15 13:53:25;;;;;;;4.63;2.60;;;;;;;;;;5063164;28;20402;-47
2020/12/15 13:55:52;;;;;;;3.92;2.50;;;;;;;;;;5063865;28;20222;-47
2020/12/15 13:58:18;;;;;;;4.05;2.70;;;;;;;;;;5065079;28;20028;-47
2020/12/15 14:00:44;;;;;;;3.58;1.92;;;;;;;;;;5064962;28;20091;-47
2020/12/15 14:03:10;;;;;;;4.22;1.90;;;;;;;;;;5063151;28;20154;-46
2020/12/15 14:05:38;;;;;;;4.60;1.80;;;;;;;;;;5064192;28;20028;-47
2020/12/15 14:08:04;;;;;;;2.38;1.50;;;;;;;;;;5064012;28;20024;-51
2020/12/15 14:10:30;;;;;;;3.10;1.80;;;;;;;;;;5063979;28;20040;-47
2020/12/15 14:12:56;;;;;;;3.05;2.22;;;;;;;;;;5064275;28;20024;-46
2020/12/15 14:15:22;;;;;;;6.72;3.40;;;;;;;;;;5064154;28;20055;-51
2020/12/15 14:17:48;;;;;;;7.40;4.22;;;;;;;;;;5064588;28;20549;-48
2020/12/15 14:20:14;;;;;;;5.43;3.47;;;;;;;;;;5064541;28;20128;-50
2020/12/15 14:22:40;;;;;;;5.13;3.42;;;;;;;;;;5062410;28;20156;-47
2020/12/15 14:25:06;;;;;;;5.40;3.35;;;;;;;;;;5063685;28;20039;-47
2020/12/15 14:27:32;;;;;;;5.07;3.15;;;;;;;;;;5064463;28;20020;-46
2020/12/15 14:29:58;;;;;;;3.78;2.70;;;;;;;;;;5064002;28;20332;-47
2020/12/15 14:32:24;;;;;;;4.50;2.70;;;;;;;;;;5064104;28;20021;-47
2020/12/15 14:34:50;;;;;;;5.00;2.78;;;;;;;;;;5064213;28;20066;-46
2020/12/15 14:37:17;;;;;;;4.53;2.83;;;;;;;;;;5064587;28;20020;-48
2020/12/15 14:39:43;;;;;;;5.10;3.17;;;;;;;;;;5064452;28;20180;-47
2020/12/15 14:42:11;;;;;;;6.05;3.42;;;;;;;;;;5064931;28;20033;-46